Aérodrome :
LOGIN :

S'inscrire | Disclaimer

   EN    FR    IT 

 










Légende :    VFR   VFR Marginal   IFR   IFR Intensif   IFR Très Intensif
Visi : 
Plafond : 
>= 8 km
>= 3000ft
5 à 8 km
1000 à 3000 ft
1500m à 5 km
500 à 1000 ft
800 à 1500m
200 à 500 ft
< 800m
< 200 ft
Symboles :   Orages  Brouillard  Fortes neiges  Fortes précipitations  Vent > 20 kt
SIGMETs :   Divers  Orages  Givrage  Turbulence  Onde Orograph.  Cendres Volcan.







- Altitude de l'aérodrome : 49 ft
- Code IATA : GLZ


EHGR - Gilze-Rijen Airbase

METARs EXPIRÉS :
  • 241434Z AUTO 23010KT 200V280 9999 FEW012 SCT015 OVC018 18/15 Q1014 WHT
  • 241425Z AUTO 23008KT 200V280 9999 FEW013 BKN015 OVC018 18/15 Q1014 WHT
  • 241418Z AUTO 23009KT 200V280 9999 FEW013 OVC016 18/15 Q1014 WHT
  • 241355Z AUTO 23009KT 200V280 9999 FEW008 BKN014 OVC018 18/15 Q1015 GRN
  • 241344Z AUTO 24009KT 210V280 9999 BKN014 OVC017 18/14 Q1015 GRN
  • 241332Z AUTO 23009KT 210V280 6000 HZ FEW012 OVC015 18/15 Q1015 WHT
  • 241325Z AUTO 24009KT 200V270 9999 FEW012 BKN015 OVC019 18/14 Q1015 WHT
  • 241309Z AUTO 24011KT 190V280 9999 OVC015 18/14 Q1015 WHT
  • 241255Z AUTO 23009KT 210V280 9999 SCT014 OVC016 18/14 Q1015 GRN
  • 241239Z AUTO 23008KT 210V280 9999 SCT013 OVC015 18/14 Q1015 GRN
  • 241226Z AUTO 23009KT 200V270 9999 SCT011 BKN014 OVC016 18/15 Q1015 GRN
  • 241217Z AUTO 23009KT 200V270 6000 BR SCT011 BKN014 OVC016 18/15 Q1015 GRN 22009KT 5000 -DZ SCT007 BKN009 OVC011 BECMG 25014KT 9999 FEW015 BKN020
  • 241205Z AUTO 22010KT 200V260 9999 SCT012 BKN014 OVC016 18/15 Q1015 GRN 22009KT 5000 -DZ SCT007 BKN009 OVC011 BECMG 25014KT 9999 FEW015 BKN020
  • 241155Z AUTO 23009KT 190V270 9999 DZ SCT011 OVC015 17/15 Q1015 GRN 22009KT 5000 -DZ SCT007 BKN009 OVC011 BECMG 25014KT 9999 FEW015 BKN020

TAF TAF EHGR
Valide du 24 à 09h jusqu'au 24 à 21h UTC


240857Z 2409/2421 22010KT 3000 -DZ SCT005 BKN010 OVC018
BECMG 2409/2411 9999 NSW SCT010 BKN018
PROB40
TEMPO 2410/2412 SCT008 BKN015
BECMG 2412/2414 SCT015 BKN020
Pas de NOTAMs connus pour ce terrain.



MET'MAP, la Météo Aéronautique d'un coup d'oeil ! - Copyright ORBIFLY Décembre 2007 - Disclaimer

ORBIFLY MET'MAP TEAM :

Programmation & Développement : Alexandra Zaïnal
Conception & Développement : Baudouin d'Aumeries
Co-Programmation & Développement : Marc-Olivier Méhu
Soutien technique & logistique : Manuel Goepfert

Contact : metmap@orbifly.com




SOURCES & CREDITS :

   NOAA